sensor_id;sensor_type;location;lat;lon;timestamp;P1;durP1;ratioP1;P2;durP2;ratioP2
71046;SDS011;58703;48.978;8.982;2023-02-15T00:01:32;48.78;;;14.98;;
71046;SDS011;58703;48.978;8.982;2023-02-15T00:03:58;42.85;;;15.20;;
71046;SDS011;58703;48.978;8.982;2023-02-15T00:06:24;43.08;;;17.58;;
71046;SDS011;58703;48.978;8.982;2023-02-15T00:08:50;41.72;;;17.92;;
71046;SDS011;58703;48.978;8.982;2023-02-15T00:11:16;45.43;;;18.00;;
71046;SDS011;58703;48.978;8.982;2023-02-15T00:14:02;45.97;;;17.52;;
71046;SDS011;58703;48.978;8.982;2023-02-15T00:16:28;46.63;;;18.17;;
71046;SDS011;58703;48.978;8.982;2023-02-15T00:18:54;56.40;;;19.70;;
71046;SDS011;58703;48.978;8.982;2023-02-15T00:21:20;81.90;;;16.55;;
71046;SDS011;58703;48.978;8.982;2023-02-15T00:23:46;41.23;;;14.33;;
71046;SDS011;58703;48.978;8.982;2023-02-15T00:26:11;60.92;;;15.45;;
71046;SDS011;58703;48.978;8.982;2023-02-15T00:28:37;41.95;;;14.73;;
71046;SDS011;58703;48.978;8.982;2023-02-15T00:31:04;35.78;;;14.57;;
71046;SDS011;58703;48.978;8.982;2023-02-15T00:33:31;46.30;;;17.38;;
71046;SDS011;58703;48.978;8.982;2023-02-15T00:35:57;51.13;;;16.93;;
71046;SDS011;58703;48.978;8.982;2023-02-15T00:38:23;69.50;;;16.80;;
71046;SDS011;58703;48.978;8.982;2023-02-15T00:40:53;43.50;;;17.10;;
71046;SDS011;58703;48.978;8.982;2023-02-15T00:43:25;40.05;;;15.68;;
71046;SDS011;58703;48.978;8.982;2023-02-15T00:45:51;66.63;;;17.05;;
71046;SDS011;58703;48.978;8.982;2023-02-15T00:48:17;46.70;;;16.35;;
71046;SDS011;58703;48.978;8.982;2023-02-15T00:50:51;53.83;;;15.23;;
71046;SDS011;58703;48.978;8.982;2023-02-15T00:53:18;50.78;;;15.40;;
71046;SDS011;58703;48.978;8.982;2023-02-15T00:55:43;59.92;;;15.73;;
71046;SDS011;58703;48.978;8.982;2023-02-15T00:58:09;56.13;;;14.93;;
71046;SDS011;58703;48.978;8.982;2023-02-15T01:00:36;69.75;;;13.73;;
71046;SDS011;58703;48.978;8.982;2023-02-15T01:03:04;84.57;;;15.10;;
71046;SDS011;58703;48.978;8.982;2023-02-15T01:05:30;73.97;;;15.13;;
71046;SDS011;58703;48.978;8.982;2023-02-15T01:07:57;79.60;;;15.93;;
71046;SDS011;58703;48.978;8.982;2023-02-15T01:10:23;89.00;;;15.90;;
71046;SDS011;58703;48.978;8.982;2023-02-15T01:12:50;77.75;;;15.32;;
71046;SDS011;58703;48.978;8.982;2023-02-15T01:15:16;120.20;;;17.25;;
71046;SDS011;58703;48.978;8.982;2023-02-15T01:17:42;104.47;;;15.13;;
71046;SDS011;58703;48.978;8.982;2023-02-15T01:20:11;107.70;;;15.88;;
71046;SDS011;58703;48.978;8.982;2023-02-15T01:22:37;98.35;;;15.48;;
71046;SDS011;58703;48.978;8.982;2023-02-15T01:25:02;94.80;;;12.43;;
71046;SDS011;58703;48.978;8.982;2023-02-15T01:27:28;86.78;;;14.52;;
71046;SDS011;58703;48.978;8.982;2023-02-15T01:29:56;75.18;;;12.85;;
71046;SDS011;58703;48.978;8.982;2023-02-15T01:32:22;74.30;;;13.37;;
71046;SDS011;58703;48.978;8.982;2023-02-15T01:34:47;98.05;;;14.65;;
71046;SDS011;58703;48.978;8.982;2023-02-15T01:37:13;65.82;;;13.15;;
71046;SDS011;58703;48.978;8.982;2023-02-15T01:39:38;65.37;;;10.60;;
71046;SDS011;58703;48.978;8.982;2023-02-15T01:42:04;61.90;;;12.77;;
71046;SDS011;58703;48.978;8.982;2023-02-15T01:44:49;75.78;;;12.90;;
71046;SDS011;58703;48.978;8.982;2023-02-15T01:49:53;28.85;;;11.05;;
71046;SDS011;58703;48.978;8.982;2023-02-15T01:52:25;40.40;;;12.23;;
71046;SDS011;58703;48.978;8.982;2023-02-15T01:54:51;69.57;;;14.20;;
71046;SDS011;58703;48.978;8.982;2023-02-15T01:57:18;82.50;;;12.53;;
71046;SDS011;58703;48.978;8.982;2023-02-15T01:59:46;62.65;;;12.10;;
71046;SDS011;58703;48.978;8.982;2023-02-15T02:02:16;73.32;;;13.20;;
71046;SDS011;58703;48.978;8.982;2023-02-15T02:04:50;97.50;;;14.00;;
71046;SDS011;58703;48.978;8.982;2023-02-15T02:07:18;68.85;;;13.18;;
71046;SDS011;58703;48.978;8.982;2023-02-15T02:09:45;85.95;;;16.98;;
71046;SDS011;58703;48.978;8.982;2023-02-15T02:12:11;64.22;;;13.90;;
71046;SDS011;58703;48.978;8.982;2023-02-15T02:14:37;59.83;;;14.65;;
71046;SDS011;58703;48.978;8.982;2023-02-15T02:20:24;74.75;;;14.07;;
71046;SDS011;58703;48.978;8.982;2023-02-15T02:34:54;106.97;;;14.68;;
71046;SDS011;58703;48.978;8.982;2023-02-15T02:37:23;58.05;;;15.27;;
71046;SDS011;58703;48.978;8.982;2023-02-15T02:40:01;55.53;;;13.13;;
71046;SDS011;58703;48.978;8.982;2023-02-15T02:47:46;32.67;;;11.27;;
71046;SDS011;58703;48.978;8.982;2023-02-15T02:50:22;34.28;;;12.70;;
71046;SDS011;58703;48.978;8.982;2023-02-15T02:52:51;38.13;;;12.40;;
71046;SDS011;58703;48.978;8.982;2023-02-15T02:58:06;38.03;;;12.27;;
71046;SDS011;58703;48.978;8.982;2023-02-15T03:00:39;38.50;;;11.25;;
71046;SDS011;58703;48.978;8.982;2023-02-15T03:06:10;26.33;;;10.77;;
71046;SDS011;58703;48.978;8.982;2023-02-15T03:08:46;39.78;;;11.32;;
71046;SDS011;58703;48.978;8.982;2023-02-15T03:11:14;69.40;;;13.80;;
71046;SDS011;58703;48.978;8.982;2023-02-15T03:13:40;64.32;;;14.23;;
71046;SDS011;58703;48.978;8.982;2023-02-15T03:16:06;94.90;;;16.95;;
71046;SDS011;58703;48.978;8.982;2023-02-15T03:19:02;79.93;;;17.08;;
71046;SDS011;58703;48.978;8.982;2023-02-15T03:21:41;99.30;;;21.13;;
71046;SDS011;58703;48.978;8.982;2023-02-15T03:24:19;104.03;;;19.92;;
71046;SDS011;58703;48.978;8.982;2023-02-15T03:26:48;89.03;;;19.88;;
71046;SDS011;58703;48.978;8.982;2023-02-15T03:29:17;68.30;;;16.15;;
71046;SDS011;58703;48.978;8.982;2023-02-15T03:31:45;67.72;;;15.95;;
71046;SDS011;58703;48.978;8.982;2023-02-15T03:34:14;65.32;;;18.60;;
71046;SDS011;58703;48.978;8.982;2023-02-15T03:39:20;57.47;;;13.65;;
71046;SDS011;58703;48.978;8.982;2023-02-15T03:41:58;57.95;;;13.43;;
71046;SDS011;58703;48.978;8.982;2023-02-15T03:45:09;51.85;;;13.23;;
71046;SDS011;58703;48.978;8.982;2023-02-15T03:47:43;39.78;;;14.15;;
71046;SDS011;58703;48.978;8.982;2023-02-15T03:50:15;35.10;;;12.90;;
71046;SDS011;58703;48.978;8.982;2023-02-15T03:53:03;37.63;;;13.63;;
71046;SDS011;58703;48.978;8.982;2023-02-15T03:55:33;28.80;;;13.07;;
71046;SDS011;58703;48.978;8.982;2023-02-15T03:57:59;33.90;;;12.70;;
71046;SDS011;58703;48.978;8.982;2023-02-15T04:00:46;30.83;;;12.32;;
71046;SDS011;58703;48.978;8.982;2023-02-15T04:03:39;39.90;;;12.38;;
71046;SDS011;58703;48.978;8.982;2023-02-15T04:06:08;29.13;;;10.68;;
71046;SDS011;58703;48.978;8.982;2023-02-15T04:08:33;29.13;;;9.23;;
71046;SDS011;58703;48.978;8.982;2023-02-15T04:11:17;29.90;;;8.82;;
71046;SDS011;58703;48.978;8.982;2023-02-15T04:13:43;34.07;;;10.10;;
71046;SDS011;58703;48.978;8.982;2023-02-15T04:16:08;40.53;;;11.15;;
71046;SDS011;58703;48.978;8.982;2023-02-15T04:21:20;32.05;;;11.00;;
71046;SDS011;58703;48.978;8.982;2023-02-15T04:24:06;22.17;;;8.85;;
71046;SDS011;58703;48.978;8.982;2023-02-15T04:26:50;25.88;;;10.73;;
71046;SDS011;58703;48.978;8.982;2023-02-15T04:29:18;42.63;;;11.27;;
71046;SDS011;58703;48.978;8.982;2023-02-15T04:31:45;29.98;;;11.45;;
71046;SDS011;58703;48.978;8.982;2023-02-15T04:34:11;30.30;;;10.63;;
71046;SDS011;58703;48.978;8.982;2023-02-15T04:36:37;29.33;;;10.60;;
71046;SDS011;58703;48.978;8.982;2023-02-15T04:39:03;35.53;;;10.57;;
71046;SDS011;58703;48.978;8.982;2023-02-15T04:41:29;27.35;;;10.75;;
71046;SDS011;58703;48.978;8.982;2023-02-15T04:43:54;28.43;;;10.90;;
71046;SDS011;58703;48.978;8.982;2023-02-15T04:46:20;27.50;;;10.60;;
71046;SDS011;58703;48.978;8.982;2023-02-15T04:48:45;31.02;;;11.15;;
71046;SDS011;58703;48.978;8.982;2023-02-15T04:51:11;35.27;;;11.10;;
71046;SDS011;58703;48.978;8.982;2023-02-15T04:53:36;29.63;;;10.70;;
71046;SDS011;58703;48.978;8.982;2023-02-15T04:56:02;31.60;;;11.17;;
71046;SDS011;58703;48.978;8.982;2023-02-15T04:58:28;25.98;;;8.98;;
71046;SDS011;58703;48.978;8.982;2023-02-15T05:00:57;58.57;;;13.03;;
71046;SDS011;58703;48.978;8.982;2023-02-15T05:03:23;34.53;;;11.27;;
71046;SDS011;58703;48.978;8.982;2023-02-15T05:05:49;32.95;;;10.70;;
71046;SDS011;58703;48.978;8.982;2023-02-15T05:08:15;21.87;;;9.70;;
71046;SDS011;58703;48.978;8.982;2023-02-15T05:10:40;25.27;;;11.00;;
71046;SDS011;58703;48.978;8.982;2023-02-15T05:13:06;29.08;;;12.00;;
71046;SDS011;58703;48.978;8.982;2023-02-15T05:15:31;25.70;;;9.90;;
71046;SDS011;58703;48.978;8.982;2023-02-15T05:17:57;27.88;;;10.43;;
71046;SDS011;58703;48.978;8.982;2023-02-15T05:20:22;25.30;;;10.73;;
71046;SDS011;58703;48.978;8.982;2023-02-15T05:22:48;28.53;;;10.60;;
71046;SDS011;58703;48.978;8.982;2023-02-15T05:25:14;20.15;;;9.68;;
71046;SDS011;58703;48.978;8.982;2023-02-15T05:27:58;31.42;;;12.75;;
71046;SDS011;58703;48.978;8.982;2023-02-15T05:30:42;26.33;;;9.48;;
71046;SDS011;58703;48.978;8.982;2023-02-15T05:33:08;31.08;;;10.55;;
71046;SDS011;58703;48.978;8.982;2023-02-15T05:35:34;19.00;;;9.77;;
71046;SDS011;58703;48.978;8.982;2023-02-15T05:38:00;35.45;;;11.75;;
71046;SDS011;58703;48.978;8.982;2023-02-15T05:40:25;20.48;;;10.25;;
71046;SDS011;58703;48.978;8.982;2023-02-15T05:42:51;31.27;;;12.30;;
71046;SDS011;58703;48.978;8.982;2023-02-15T05:45:17;41.10;;;13.17;;
71046;SDS011;58703;48.978;8.982;2023-02-15T05:47:42;60.05;;;12.18;;
71046;SDS011;58703;48.978;8.982;2023-02-15T05:50:08;24.27;;;9.87;;
71046;SDS011;58703;48.978;8.982;2023-02-15T05:52:35;51.78;;;12.02;;
71046;SDS011;58703;48.978;8.982;2023-02-15T05:55:00;41.22;;;11.70;;
71046;SDS011;58703;48.978;8.982;2023-02-15T05:57:27;36.33;;;12.18;;
71046;SDS011;58703;48.978;8.982;2023-02-15T05:59:53;44.30;;;12.70;;
71046;SDS011;58703;48.978;8.982;2023-02-15T06:02:18;33.23;;;13.07;;
71046;SDS011;58703;48.978;8.982;2023-02-15T06:04:44;31.58;;;13.68;;
71046;SDS011;58703;48.978;8.982;2023-02-15T06:07:10;28.38;;;11.38;;
71046;SDS011;58703;48.978;8.982;2023-02-15T06:09:35;33.53;;;12.03;;
71046;SDS011;58703;48.978;8.982;2023-02-15T06:12:01;37.23;;;12.43;;
71046;SDS011;58703;48.978;8.982;2023-02-15T06:14:26;44.85;;;13.52;;
71046;SDS011;58703;48.978;8.982;2023-02-15T06:16:52;38.97;;;12.60;;
71046;SDS011;58703;48.978;8.982;2023-02-15T06:19:17;60.60;;;12.63;;
71046;SDS011;58703;48.978;8.982;2023-02-15T06:21:43;50.30;;;13.18;;
71046;SDS011;58703;48.978;8.982;2023-02-15T06:24:08;50.40;;;13.07;;
71046;SDS011;58703;48.978;8.982;2023-02-15T06:26:34;42.50;;;14.35;;
71046;SDS011;58703;48.978;8.982;2023-02-15T06:29:00;32.17;;;12.27;;
71046;SDS011;58703;48.978;8.982;2023-02-15T06:31:25;42.33;;;13.77;;
71046;SDS011;58703;48.978;8.982;2023-02-15T06:33:51;34.60;;;13.13;;
71046;SDS011;58703;48.978;8.982;2023-02-15T06:36:17;34.10;;;11.83;;
71046;SDS011;58703;48.978;8.982;2023-02-15T06:38:42;35.67;;;9.68;;
71046;SDS011;58703;48.978;8.982;2023-02-15T06:41:08;39.33;;;11.73;;
71046;SDS011;58703;48.978;8.982;2023-02-15T06:43:33;35.77;;;12.43;;
71046;SDS011;58703;48.978;8.982;2023-02-15T06:45:59;31.60;;;12.02;;
71046;SDS011;58703;48.978;8.982;2023-02-15T06:48:25;27.60;;;13.00;;
71046;SDS011;58703;48.978;8.982;2023-02-15T06:50:51;30.53;;;13.60;;
71046;SDS011;58703;48.978;8.982;2023-02-15T06:53:17;27.90;;;12.27;;
71046;SDS011;58703;48.978;8.982;2023-02-15T06:55:43;27.90;;;12.30;;
71046;SDS011;58703;48.978;8.982;2023-02-15T06:58:08;44.63;;;10.87;;
71046;SDS011;58703;48.978;8.982;2023-02-15T07:00:34;40.20;;;13.98;;
71046;SDS011;58703;48.978;8.982;2023-02-15T07:02:59;44.20;;;11.57;;
71046;SDS011;58703;48.978;8.982;2023-02-15T07:05:27;43.58;;;16.45;;
71046;SDS011;58703;48.978;8.982;2023-02-15T07:07:56;27.80;;;12.32;;
71046;SDS011;58703;48.978;8.982;2023-02-15T07:10:22;35.22;;;12.75;;
71046;SDS011;58703;48.978;8.982;2023-02-15T07:12:48;36.67;;;12.40;;
71046;SDS011;58703;48.978;8.982;2023-02-15T07:15:17;28.40;;;10.20;;
71046;SDS011;58703;48.978;8.982;2023-02-15T07:17:45;30.55;;;9.98;;
71046;SDS011;58703;48.978;8.982;2023-02-15T07:20:16;34.10;;;10.90;;
71046;SDS011;58703;48.978;8.982;2023-02-15T07:22:44;28.58;;;9.98;;
71046;SDS011;58703;48.978;8.982;2023-02-15T07:25:10;43.43;;;13.53;;
71046;SDS011;58703;48.978;8.982;2023-02-15T07:27:37;34.38;;;11.68;;
71046;SDS011;58703;48.978;8.982;2023-02-15T07:30:03;49.83;;;9.90;;
71046;SDS011;58703;48.978;8.982;2023-02-15T07:32:31;50.47;;;13.07;;
71046;SDS011;58703;48.978;8.982;2023-02-15T07:34:57;37.17;;;11.52;;
71046;SDS011;58703;48.978;8.982;2023-02-15T07:37:23;45.55;;;10.80;;
71046;SDS011;58703;48.978;8.982;2023-02-15T07:39:49;36.13;;;11.45;;
71046;SDS011;58703;48.978;8.982;2023-02-15T07:42:14;44.27;;;11.10;;
71046;SDS011;58703;48.978;8.982;2023-02-15T07:44:40;24.60;;;11.97;;
71046;SDS011;58703;48.978;8.982;2023-02-15T07:47:05;26.35;;;12.00;;
71046;SDS011;58703;48.978;8.982;2023-02-15T07:49:31;41.13;;;12.37;;
71046;SDS011;58703;48.978;8.982;2023-02-15T07:51:57;45.80;;;13.13;;
71046;SDS011;58703;48.978;8.982;2023-02-15T07:54:22;26.52;;;10.48;;
71046;SDS011;58703;48.978;8.982;2023-02-15T07:56:48;23.57;;;11.80;;
71046;SDS011;58703;48.978;8.982;2023-02-15T07:59:13;28.63;;;11.27;;
71046;SDS011;58703;48.978;8.982;2023-02-15T08:01:39;38.95;;;12.88;;
71046;SDS011;58703;48.978;8.982;2023-02-15T08:04:05;45.15;;;13.82;;
71046;SDS011;58703;48.978;8.982;2023-02-15T08:06:33;39.55;;;12.55;;
71046;SDS011;58703;48.978;8.982;2023-02-15T08:09:00;36.30;;;11.93;;
71046;SDS011;58703;48.978;8.982;2023-02-15T08:11:29;53.97;;;13.02;;
71046;SDS011;58703;48.978;8.982;2023-02-15T08:14:35;39.50;;;20.33;;
71046;SDS011;58703;48.978;8.982;2023-02-15T08:16:54;30.55;;;12.15;;
71046;SDS011;58703;48.978;8.982;2023-02-15T08:19:25;24.63;;;10.55;;
71046;SDS011;58703;48.978;8.982;2023-02-15T08:21:56;30.63;;;11.82;;
71046;SDS011;58703;48.978;8.982;2023-02-15T08:24:24;27.95;;;11.85;;
71046;SDS011;58703;48.978;8.982;2023-02-15T08:26:52;34.28;;;10.82;;
71046;SDS011;58703;48.978;8.982;2023-02-15T08:29:19;28.33;;;12.18;;
71046;SDS011;58703;48.978;8.982;2023-02-15T08:31:47;30.00;;;11.85;;
71046;SDS011;58703;48.978;8.982;2023-02-15T08:34:15;32.92;;;10.38;;
71046;SDS011;58703;48.978;8.982;2023-02-15T08:36:43;45.30;;;6.85;;
71046;SDS011;58703;48.978;8.982;2023-02-15T08:39:10;22.05;;;10.05;;
71046;SDS011;58703;48.978;8.982;2023-02-15T08:41:37;34.58;;;10.88;;
71046;SDS011;58703;48.978;8.982;2023-02-15T08:44:07;24.35;;;11.10;;
71046;SDS011;58703;48.978;8.982;2023-02-15T08:46:34;30.08;;;11.93;;
71046;SDS011;58703;48.978;8.982;2023-02-15T08:49:02;25.38;;;10.60;;
71046;SDS011;58703;48.978;8.982;2023-02-15T08:51:29;37.25;;;11.80;;
71046;SDS011;58703;48.978;8.982;2023-02-15T08:53:58;39.50;;;12.43;;
71046;SDS011;58703;48.978;8.982;2023-02-15T08:56:29;30.30;;;11.35;;
71046;SDS011;58703;48.978;8.982;2023-02-15T08:58:57;23.52;;;12.02;;
71046;SDS011;58703;48.978;8.982;2023-02-15T09:01:24;29.57;;;12.13;;
71046;SDS011;58703;48.978;8.982;2023-02-15T09:03:54;32.05;;;11.90;;
71046;SDS011;58703;48.978;8.982;2023-02-15T09:06:22;28.98;;;10.80;;
71046;SDS011;58703;48.978;8.982;2023-02-15T09:08:48;25.67;;;11.02;;
71046;SDS011;58703;48.978;8.982;2023-02-15T09:11:15;46.60;;;14.00;;
71046;SDS011;58703;48.978;8.982;2023-02-15T09:13:47;38.70;;;11.00;;
71046;SDS011;58703;48.978;8.982;2023-02-15T09:16:14;45.47;;;12.63;;
71046;SDS011;58703;48.978;8.982;2023-02-15T09:18:41;20.98;;;9.25;;
71046;SDS011;58703;48.978;8.982;2023-02-15T09:21:08;41.83;;;10.80;;
71046;SDS011;58703;48.978;8.982;2023-02-15T09:23:35;25.77;;;10.10;;
71046;SDS011;58703;48.978;8.982;2023-02-15T09:26:02;26.38;;;11.00;;
71046;SDS011;58703;48.978;8.982;2023-02-15T09:28:29;49.60;;;14.30;;
71046;SDS011;58703;48.978;8.982;2023-02-15T09:30:55;31.50;;;12.32;;
71046;SDS011;58703;48.978;8.982;2023-02-15T09:33:21;39.55;;;10.18;;
71046;SDS011;58703;48.978;8.982;2023-02-15T09:35:47;24.63;;;11.03;;
71046;SDS011;58703;48.978;8.982;2023-02-15T09:38:12;38.10;;;11.50;;
71046;SDS011;58703;48.978;8.982;2023-02-15T09:40:41;35.22;;;11.82;;
71046;SDS011;58703;48.978;8.982;2023-02-15T09:43:30;26.20;;;11.40;;
71046;SDS011;58703;48.978;8.982;2023-02-15T09:46:17;35.00;;;12.13;;
71046;SDS011;58703;48.978;8.982;2023-02-15T09:48:56;31.13;;;12.10;;
71046;SDS011;58703;48.978;8.982;2023-02-15T09:51:37;32.70;;;12.95;;
71046;SDS011;58703;48.978;8.982;2023-02-15T09:54:15;21.25;;;9.90;;
71046;SDS011;58703;48.978;8.982;2023-02-15T09:56:52;38.83;;;12.15;;
71046;SDS011;58703;48.978;8.982;2023-02-15T10:05:28;22.73;;;12.48;;
71046;SDS011;58703;48.978;8.982;2023-02-15T10:11:09;21.20;;;12.38;;
71046;SDS011;58703;48.978;8.982;2023-02-15T10:22:48;33.70;;;12.55;;
71046;SDS011;58703;48.978;8.982;2023-02-15T10:25:50;25.48;;;12.60;;
71046;SDS011;58703;48.978;8.982;2023-02-15T10:28:46;30.67;;;13.57;;
71046;SDS011;58703;48.978;8.982;2023-02-15T10:31:28;27.98;;;13.10;;
71046;SDS011;58703;48.978;8.982;2023-02-15T10:34:30;40.83;;;13.73;;
71046;SDS011;58703;48.978;8.982;2023-02-15T10:40:32;28.98;;;13.43;;
71046;SDS011;58703;48.978;8.982;2023-02-15T10:48:51;30.40;;;14.48;;
71046;SDS011;58703;48.978;8.982;2023-02-15T10:51:40;30.23;;;14.70;;
71046;SDS011;58703;48.978;8.982;2023-02-15T11:05:07;25.98;;;13.60;;
71046;SDS011;58703;48.978;8.982;2023-02-15T11:07:52;21.63;;;13.10;;
71046;SDS011;58703;48.978;8.982;2023-02-15T11:10:38;25.95;;;12.95;;
71046;SDS011;58703;48.978;8.982;2023-02-15T11:13:29;28.58;;;14.13;;
71046;SDS011;58703;48.978;8.982;2023-02-15T11:16:07;29.85;;;15.68;;
71046;SDS011;58703;48.978;8.982;2023-02-15T11:19:00;30.67;;;15.68;;
71046;SDS011;58703;48.978;8.982;2023-02-15T11:21:32;31.00;;;15.82;;
71046;SDS011;58703;48.978;8.982;2023-02-15T11:24:10;27.83;;;14.00;;
71046;SDS011;58703;48.978;8.982;2023-02-15T11:26:39;25.92;;;14.95;;
71046;SDS011;58703;48.978;8.982;2023-02-15T11:32:02;22.80;;;12.48;;
71046;SDS011;58703;48.978;8.982;2023-02-15T11:34:38;22.40;;;13.25;;
71046;SDS011;58703;48.978;8.982;2023-02-15T11:37:13;20.25;;;12.35;;
71046;SDS011;58703;48.978;8.982;2023-02-15T11:39:43;18.88;;;11.32;;
71046;SDS011;58703;48.978;8.982;2023-02-15T11:42:11;21.60;;;13.85;;
71046;SDS011;58703;48.978;8.982;2023-02-15T11:44:44;20.65;;;13.32;;
71046;SDS011;58703;48.978;8.982;2023-02-15T11:47:23;19.85;;;12.07;;
71046;SDS011;58703;48.978;8.982;2023-02-15T11:49:48;20.13;;;11.60;;
71046;SDS011;58703;48.978;8.982;2023-02-15T11:52:14;18.73;;;11.00;;
71046;SDS011;58703;48.978;8.982;2023-02-15T11:54:43;19.60;;;11.43;;
71046;SDS011;58703;48.978;8.982;2023-02-15T11:57:18;16.75;;;10.75;;
71046;SDS011;58703;48.978;8.982;2023-02-15T12:02:33;24.95;;;12.05;;
71046;SDS011;58703;48.978;8.982;2023-02-15T12:05:16;19.33;;;12.02;;
71046;SDS011;58703;48.978;8.982;2023-02-15T12:07:49;23.00;;;12.85;;
71046;SDS011;58703;48.978;8.982;2023-02-15T12:13:08;20.20;;;12.63;;
71046;SDS011;58703;48.978;8.982;2023-02-15T12:15:37;20.02;;;12.70;;
71046;SDS011;58703;48.978;8.982;2023-02-15T12:21:10;23.15;;;13.57;;
71046;SDS011;58703;48.978;8.982;2023-02-15T12:23:43;23.17;;;13.60;;
71046;SDS011;58703;48.978;8.982;2023-02-15T12:26:11;22.15;;;13.18;;
71046;SDS011;58703;48.978;8.982;2023-02-15T12:28:39;19.98;;;11.60;;
71046;SDS011;58703;48.978;8.982;2023-02-15T12:31:09;24.02;;;13.70;;
71046;SDS011;58703;48.978;8.982;2023-02-15T12:33:45;23.38;;;13.80;;
71046;SDS011;58703;48.978;8.982;2023-02-15T12:36:21;23.48;;;13.95;;
71046;SDS011;58703;48.978;8.982;2023-02-15T12:39:02;23.48;;;14.25;;
71046;SDS011;58703;48.978;8.982;2023-02-15T12:44:20;21.92;;;13.80;;
71046;SDS011;58703;48.978;8.982;2023-02-15T12:49:41;20.70;;;13.27;;
71046;SDS011;58703;48.978;8.982;2023-02-15T12:52:22;21.80;;;13.50;;
71046;SDS011;58703;48.978;8.982;2023-02-15T12:54:50;23.67;;;15.02;;
71046;SDS011;58703;48.978;8.982;2023-02-15T12:57:31;23.67;;;14.73;;
71046;SDS011;58703;48.978;8.982;2023-02-15T13:00:05;26.20;;;15.30;;
71046;SDS011;58703;48.978;8.982;2023-02-15T13:02:53;25.50;;;15.80;;
71046;SDS011;58703;48.978;8.982;2023-02-15T13:08:08;29.42;;;16.50;;
71046;SDS011;58703;48.978;8.982;2023-02-15T13:10:40;29.85;;;18.50;;
71046;SDS011;58703;48.978;8.982;2023-02-15T13:13:14;26.23;;;15.93;;
71046;SDS011;58703;48.978;8.982;2023-02-15T13:15:48;25.30;;;16.25;;
71046;SDS011;58703;48.978;8.982;2023-02-15T13:18:23;26.40;;;14.75;;
71046;SDS011;58703;48.978;8.982;2023-02-15T13:20:52;28.42;;;15.40;;
71046;SDS011;58703;48.978;8.982;2023-02-15T13:23:26;26.37;;;16.60;;
71046;SDS011;58703;48.978;8.982;2023-02-15T13:25:52;29.65;;;17.15;;
71046;SDS011;58703;48.978;8.982;2023-02-15T13:28:22;31.60;;;18.42;;
71046;SDS011;58703;48.978;8.982;2023-02-15T13:30:53;28.13;;;16.33;;
71046;SDS011;58703;48.978;8.982;2023-02-15T13:33:30;30.00;;;17.63;;
71046;SDS011;58703;48.978;8.982;2023-02-15T13:36:08;25.67;;;16.23;;
71046;SDS011;58703;48.978;8.982;2023-02-15T13:38:45;29.40;;;17.75;;
71046;SDS011;58703;48.978;8.982;2023-02-15T13:41:21;57.47;;;28.95;;
71046;SDS011;58703;48.978;8.982;2023-02-15T13:43:56;32.10;;;18.50;;
71046;SDS011;58703;48.978;8.982;2023-02-15T13:46:34;26.20;;;17.00;;
71046;SDS011;58703;48.978;8.982;2023-02-15T13:51:56;26.15;;;16.45;;
71046;SDS011;58703;48.978;8.982;2023-02-15T13:57:40;28.05;;;17.50;;
71046;SDS011;58703;48.978;8.982;2023-02-15T14:05:55;29.65;;;17.17;;
71046;SDS011;58703;48.978;8.982;2023-02-15T14:11:29;25.73;;;16.15;;
71046;SDS011;58703;48.978;8.982;2023-02-15T14:16:51;26.75;;;16.63;;
71046;SDS011;58703;48.978;8.982;2023-02-15T14:19:34;23.02;;;12.63;;
71046;SDS011;58703;48.978;8.982;2023-02-15T14:24:59;23.35;;;15.27;;
71046;SDS011;58703;48.978;8.982;2023-02-15T14:35:39;24.48;;;16.77;;
71046;SDS011;58703;48.978;8.982;2023-02-15T14:41:09;26.15;;;16.02;;
71046;SDS011;58703;48.978;8.982;2023-02-15T14:46:56;22.30;;;14.27;;
71046;SDS011;58703;48.978;8.982;2023-02-15T14:49:30;23.98;;;15.10;;
71046;SDS011;58703;48.978;8.982;2023-02-15T14:52:05;21.37;;;13.67;;
71046;SDS011;58703;48.978;8.982;2023-02-15T15:05:21;21.30;;;14.43;;
71046;SDS011;58703;48.978;8.982;2023-02-15T15:07:55;20.45;;;13.07;;
71046;SDS011;58703;48.978;8.982;2023-02-15T15:10:33;22.33;;;14.43;;
71046;SDS011;58703;48.978;8.982;2023-02-15T15:18:55;23.13;;;14.10;;
71046;SDS011;58703;48.978;8.982;2023-02-15T15:24:45;20.92;;;13.80;;
71046;SDS011;58703;48.978;8.982;2023-02-15T15:32:57;23.40;;;15.43;;
71046;SDS011;58703;48.978;8.982;2023-02-15T15:35:27;24.10;;;15.07;;
71046;SDS011;58703;48.978;8.982;2023-02-15T15:41:03;21.00;;;13.75;;
71046;SDS011;58703;48.978;8.982;2023-02-15T15:49:20;24.35;;;14.65;;
71046;SDS011;58703;48.978;8.982;2023-02-15T15:51:47;21.02;;;14.23;;
71046;SDS011;58703;48.978;8.982;2023-02-15T15:54:21;23.55;;;14.60;;
71046;SDS011;58703;48.978;8.982;2023-02-15T15:56:51;22.30;;;14.98;;
71046;SDS011;58703;48.978;8.982;2023-02-15T15:59:21;22.23;;;15.93;;
71046;SDS011;58703;48.978;8.982;2023-02-15T16:01:49;23.13;;;14.25;;
71046;SDS011;58703;48.978;8.982;2023-02-15T16:04:22;33.55;;;18.27;;
71046;SDS011;58703;48.978;8.982;2023-02-15T16:06:53;39.70;;;19.35;;
71046;SDS011;58703;48.978;8.982;2023-02-15T16:09:20;63.23;;;26.40;;
71046;SDS011;58703;48.978;8.982;2023-02-15T16:11:51;69.90;;;28.92;;
71046;SDS011;58703;48.978;8.982;2023-02-15T16:14:31;81.18;;;33.85;;
71046;SDS011;58703;48.978;8.982;2023-02-15T16:17:01;126.30;;;49.35;;
71046;SDS011;58703;48.978;8.982;2023-02-15T16:19:30;28.35;;;16.42;;
71046;SDS011;58703;48.978;8.982;2023-02-15T16:21:59;29.73;;;16.17;;
71046;SDS011;58703;48.978;8.982;2023-02-15T16:27:22;27.85;;;16.52;;
71046;SDS011;58703;48.978;8.982;2023-02-15T16:32:45;26.90;;;15.93;;
71046;SDS011;58703;48.978;8.982;2023-02-15T16:35:15;31.85;;;17.88;;
71046;SDS011;58703;48.978;8.982;2023-02-15T16:37:42;32.10;;;17.33;;
71046;SDS011;58703;48.978;8.982;2023-02-15T16:40:25;25.17;;;13.82;;
71046;SDS011;58703;48.978;8.982;2023-02-15T16:43:04;21.80;;;12.93;;
71046;SDS011;58703;48.978;8.982;2023-02-15T16:45:32;18.77;;;11.23;;
71046;SDS011;58703;48.978;8.982;2023-02-15T16:48:04;17.42;;;11.23;;
71046;SDS011;58703;48.978;8.982;2023-02-15T16:50:34;18.63;;;11.33;;
71046;SDS011;58703;48.978;8.982;2023-02-15T16:53:03;21.17;;;13.07;;
71046;SDS011;58703;48.978;8.982;2023-02-15T16:55:34;24.20;;;13.13;;
71046;SDS011;58703;48.978;8.982;2023-02-15T16:58:04;21.13;;;12.65;;
71046;SDS011;58703;48.978;8.982;2023-02-15T17:00:34;23.30;;;13.35;;
71046;SDS011;58703;48.978;8.982;2023-02-15T17:03:03;21.73;;;13.30;;
71046;SDS011;58703;48.978;8.982;2023-02-15T17:05:48;21.23;;;13.70;;
71046;SDS011;58703;48.978;8.982;2023-02-15T17:11:20;23.25;;;14.10;;
71046;SDS011;58703;48.978;8.982;2023-02-15T17:16:44;21.40;;;12.27;;
71046;SDS011;58703;48.978;8.982;2023-02-15T17:19:15;23.42;;;13.88;;
71046;SDS011;58703;48.978;8.982;2023-02-15T17:21:51;32.08;;;18.25;;
71046;SDS011;58703;48.978;8.982;2023-02-15T17:24:20;21.20;;;12.02;;
71046;SDS011;58703;48.978;8.982;2023-02-15T17:26:54;21.00;;;12.82;;
71046;SDS011;58703;48.978;8.982;2023-02-15T17:29:28;20.90;;;12.83;;
71046;SDS011;58703;48.978;8.982;2023-02-15T17:32:01;25.73;;;16.30;;
71046;SDS011;58703;48.978;8.982;2023-02-15T17:37:10;28.70;;;16.00;;